Forside
METAR-TAF:

METAR-TAF

Lufthavne :

Narrabri, Australien

Breddekreds: 30-19-09S, længdekreds: 149-49-38E, højde: 240 m

Aktuelle vejr

Denne rapport blev lavet for 29 minutter siden, kl. 08:00 UTC
Vind 5 kt fra sydvest
Temperatur 27°C
Fugtighed 34%
Tryk 1013 hPa
Sigt 10 km eller mere

METAR: YNBR 220800Z AUTO 22005KT 9999 // NCD 27/10 Q1013

Tid: 19:29 (08:29 UTC)


TAF: fraværende

Vejrobservationer og prognoser fra mere end 4000 lufthavne (METAR og TAF).

De gule og røde prikker repræsenterer de meteorologiske stationer.

Flyt musen over at se navnet på stationen.

Så klik over at se vejr observationer og prognoser.

At skifte det kort: Klik på de grønne knapper med et sort kors for at zoome ind; på den grønne knap med en bindestreg for at zoome ud; eller på de grønne pile for tilstødende kort.


METAR-TAF: